Time;durP1;ratioP1;P1;durP2;ratioP2;P2;SDS_P1;SDS_P2;PMS_P1;PMS_P2;Temp;Humidity;BMP_temperature;BMP_pressure;BME280_temperature;BME280_humidity;BME280_pressure;Samples;Min_cycle;Max_cycle;Signal;HPM_P1;HPM_P2
2021/07/28 00:00:16;;;;;;;2.87;0.60;;;19.30;80.70;;;;;;5052647;28;20749;-68
2021/07/28 00:02:44;;;;;;;0.97;0.60;;;19.60;81.30;;;;;;5053119;28;20198;-68
2021/07/28 00:05:12;;;;;;;2.87;0.80;;;19.70;79.90;;;;;;5052662;28;20275;-67
2021/07/28 00:07:39;;;;;;;2.70;0.90;;;19.90;78.60;;;;;;5052599;28;20196;-69
2021/07/28 00:10:07;;;;;;;3.40;0.63;;;20.10;77.20;;;;;;5053347;28;20301;-68
2021/07/28 00:12:34;;;;;;;5.60;0.87;;;20.20;76.40;;;;;;5052895;28;20569;-68
2021/07/28 00:15:02;;;;;;;2.63;0.70;;;20.40;75.40;;;;;;5051062;28;20239;-64
2021/07/28 00:17:30;;;;;;;3.03;0.77;;;20.60;75.20;;;;;;5053063;28;20234;-68
2021/07/28 00:20:03;;;;;;;5.30;0.80;;;20.70;74.00;;;;;;5052856;28;20183;-70
2021/07/28 00:25:22;;;;;;;2.03;0.60;;;21.00;70.50;;;;;;5052752;28;20190;-69
2021/07/28 00:27:52;;;;;;;2.40;0.60;;;21.10;70.30;;;;;;5052088;28;20184;-71
2021/07/28 00:30:19;;;;;;;2.93;0.87;;;21.30;70.50;;;;;;5052910;28;20215;-71
2021/07/28 00:32:47;;;;;;;5.43;0.90;;;21.40;68.20;;;;;;5052477;28;20231;-71
2021/07/28 00:35:14;;;;;;;2.70;0.60;;;21.40;68.50;;;;;;5053349;28;20693;-75
2021/07/28 00:37:44;;;;;;;7.13;1.10;;;21.50;67.60;;;;;;5052042;28;20230;-74
2021/07/28 00:40:14;;;;;;;5.40;0.83;;;21.50;67.40;;;;;;5052942;28;20180;-70
2021/07/28 00:42:41;;;;;;;2.43;0.80;;;21.60;67.40;;;;;;5052823;28;20180;-73
2021/07/28 00:45:09;;;;;;;4.53;0.73;;;21.70;67.50;;;;;;5051801;28;20198;-72
2021/07/28 00:47:36;;;;;;;4.87;0.87;;;21.80;66.70;;;;;;5047323;28;20184;-70
2021/07/28 00:50:05;;;;;;;3.53;0.67;;;21.80;66.20;;;;;;5051878;28;20192;-72
2021/07/28 00:52:37;;;;;;;1.00;0.90;;;21.80;65.80;;;;;;5052447;28;20302;-69
2021/07/28 00:55:06;;;;;;;4.10;0.97;;;21.70;66.00;;;;;;5051401;28;20187;-70
2021/07/28 00:57:34;;;;;;;2.80;0.70;;;21.70;66.00;;;;;;5051625;28;20179;-70
2021/07/28 01:00:02;;;;;;;1.10;0.50;;;21.80;65.80;;;;;;5053026;28;20634;-70
2021/07/28 01:02:30;;;;;;;1.20;0.83;;;21.90;66.40;;;;;;5049899;28;20206;-70
2021/07/28 01:04:57;;;;;;;1.57;0.60;;;21.80;66.10;;;;;;5037346;28;20184;-71
2021/07/28 01:07:24;;;;;;;1.90;0.80;;;21.90;66.50;;;;;;5047868;28;20188;-71
2021/07/28 01:09:52;;;;;;;2.40;0.67;;;21.80;65.80;;;;;;5052011;28;20664;-67
2021/07/28 01:12:19;;;;;;;1.63;0.70;;;21.90;65.90;;;;;;5049021;28;20191;-71
2021/07/28 01:14:49;;;;;;;2.57;1.00;;;22.00;66.10;;;;;;5045280;28;20215;-67
2021/07/28 01:17:17;;;;;;;10.67;1.00;;;22.10;66.10;;;;;;5051849;28;20180;-66
2021/07/28 01:19:53;;;;;;;2.63;0.87;;;22.20;65.70;;;;;;5051374;28;20180;-71
2021/07/28 01:22:22;;;;;;;4.57;0.70;;;22.40;65.70;;;;;;5045099;28;20229;-73
2021/07/28 01:24:50;;;;;;;3.60;0.93;;;22.50;65.40;;;;;;5046331;28;20187;-71
2021/07/28 01:27:18;;;;;;;1.80;0.80;;;22.50;65.40;;;;;;5051969;28;20184;-66
2021/07/28 01:29:46;;;;;;;3.00;0.67;;;22.50;65.30;;;;;;5051482;28;20218;-66
2021/07/28 01:32:15;;;;;;;3.80;0.73;;;22.60;65.50;;;;;;5043344;28;20235;-65
2021/07/28 01:34:43;;;;;;;3.40;0.70;;;22.70;64.50;;;;;;5047131;28;20593;-68
2021/07/28 01:37:13;;;;;;;3.00;0.70;;;22.80;64.80;;;;;;5071586;28;20206;-66
2021/07/28 01:39:41;;;;;;;1.13;0.53;;;22.90;64.40;;;;;;5066489;28;20229;-66
2021/07/28 01:42:08;;;;;;;4.30;0.97;;;22.80;64.00;;;;;;5070584;28;20182;-65
2021/07/28 01:44:37;;;;;;;3.40;1.17;;;22.80;64.90;;;;;;5058309;28;20241;-65
2021/07/28 01:47:05;;;;;;;2.07;0.80;;;22.90;65.40;;;;;;5062733;28;20186;-66
2021/07/28 01:49:32;;;;;;;8.47;1.67;;;22.90;64.60;;;;;;5058735;28;20192;-66
2021/07/28 01:52:00;;;;;;;2.30;0.90;;;22.90;64.80;;;;;;5067543;28;20171;-64
2021/07/28 01:54:27;;;;;;;3.03;1.13;;;23.00;65.50;;;;;;5059943;28;20354;-65
2021/07/28 01:56:54;;;;;;;2.40;0.70;;;23.10;64.60;;;;;;5050593;28;20195;-65
2021/07/28 01:59:23;;;;;;;3.00;0.90;;;23.20;64.80;;;;;;5050521;28;20285;-65
2021/07/28 02:01:50;;;;;;;3.00;0.77;;;23.40;64.20;;;;;;5049557;28;20653;-65
2021/07/28 02:04:17;;;;;;;3.17;0.73;;;23.50;63.80;;;;;;5051153;28;20657;-69
2021/07/28 02:06:45;;;;;;;3.20;0.77;;;23.50;64.10;;;;;;5051956;28;20183;-72
2021/07/28 02:09:12;;;;;;;1.93;0.73;;;23.50;63.10;;;;;;5051157;28;20183;-68
2021/07/28 02:11:39;;;;;;;0.87;0.50;;;23.50;64.00;;;;;;5048995;28;20179;-71
2021/07/28 02:14:07;;;;;;;2.00;0.80;;;23.70;64.30;;;;;;5062225;28;20543;-66
2021/07/28 02:16:34;;;;;;;6.17;0.70;;;23.80;63.80;;;;;;5052312;28;20200;-70
2021/07/28 02:19:01;;;;;;;8.53;1.40;;;23.80;63.60;;;;;;5055983;28;20630;-72
2021/07/28 02:21:28;;;;;;;6.30;0.90;;;23.80;64.10;;;;;;5059335;28;20587;-72
2021/07/28 02:23:56;;;;;;;9.50;1.57;;;23.90;64.10;;;;;;5052744;28;20219;-66
2021/07/28 02:26:23;;;;;;;1.53;0.57;;;24.00;64.10;;;;;;5055100;28;20190;-65
2021/07/28 02:28:52;;;;;;;2.70;1.13;;;23.90;62.80;;;;;;5062485;28;20684;-76
2021/07/28 02:31:19;;;;;;;3.30;1.20;;;23.90;63.30;;;;;;5056170;28;20183;-70
2021/07/28 02:33:47;;;;;;;2.93;0.97;;;24.10;63.20;;;;;;5063059;28;20215;-67
2021/07/28 02:36:14;;;;;;;3.43;0.93;;;24.30;63.00;;;;;;5060722;28;20192;-66
2021/07/28 02:38:41;;;;;;;1.10;0.80;;;24.10;63.10;;;;;;5062228;28;20183;-67
2021/07/28 02:41:09;;;;;;;4.00;0.80;;;24.30;63.30;;;;;;5046924;28;20192;-68
2021/07/28 02:43:36;;;;;;;2.43;0.80;;;24.60;62.30;;;;;;5060500;28;20656;-71
2021/07/28 02:46:03;;;;;;;1.67;0.50;;;24.80;61.90;;;;;;5061328;28;20183;-69
2021/07/28 02:48:31;;;;;;;1.70;0.80;;;24.90;61.10;;;;;;5067382;28;20187;-71
2021/07/28 02:50:59;;;;;;;2.57;0.70;;;25.00;61.50;;;;;;5054855;28;20576;-69
2021/07/28 02:53:26;;;;;;;3.40;0.97;;;24.60;60.90;;;;;;5055583;28;20199;-71
2021/07/28 02:55:54;;;;;;;2.23;0.93;;;24.30;61.40;;;;;;5049537;28;20176;-69
2021/07/28 02:58:21;;;;;;;3.60;1.00;;;24.50;61.80;;;;;;5056325;28;20184;-72
2021/07/28 03:00:48;;;;;;;2.10;0.77;;;24.90;62.00;;;;;;5047030;28;20259;-71
2021/07/28 03:03:16;;;;;;;2.60;0.90;;;25.50;60.70;;;;;;5051498;28;20563;-74
2021/07/28 03:05:43;;;;;;;1.77;0.90;;;25.70;59.80;;;;;;5051590;28;20650;-73
2021/07/28 03:08:11;;;;;;;2.57;0.93;;;25.80;61.50;;;;;;5055990;28;20211;-71
2021/07/28 03:10:38;;;;;;;5.33;0.70;;;26.00;59.70;;;;;;5053680;28;20180;-73
2021/07/28 03:13:06;;;;;;;2.87;0.70;;;26.00;60.00;;;;;;5052499;28;20662;-70
2021/07/28 03:15:33;;;;;;;1.10;0.60;;;25.60;60.50;;;;;;5051708;28;20194;-72
2021/07/28 03:18:01;;;;;;;3.70;1.00;;;25.80;60.50;;;;;;5051873;28;20245;-73
2021/07/28 03:20:28;;;;;;;3.00;1.03;;;25.90;59.80;;;;;;5049776;28;20199;-71
2021/07/28 03:22:56;;;;;;;0.97;0.50;;;26.30;59.80;;;;;;5050971;28;20563;-69
2021/07/28 03:25:23;;;;;;;3.60;0.80;;;26.40;58.30;;;;;;5049862;28;20176;-70
2021/07/28 03:27:51;;;;;;;2.37;1.13;;;26.60;58.00;;;;;;5052371;28;20283;-70
2021/07/28 03:30:18;;;;;;;1.93;0.70;;;26.90;58.20;;;;;;5052327;28;20642;-71
2021/07/28 03:32:46;;;;;;;3.57;0.60;;;26.90;55.70;;;;;;5050559;28;20255;-69
2021/07/28 03:35:13;;;;;;;2.63;0.60;;;26.80;55.30;;;;;;5053214;28;20188;-71
2021/07/28 03:37:40;;;;;;;4.30;0.70;;;26.90;55.50;;;;;;5053299;28;20613;-69
2021/07/28 03:40:08;;;;;;;2.13;0.60;;;27.00;55.70;;;;;;5053317;28;20206;-72
2021/07/28 03:42:36;;;;;;;2.07;0.80;;;27.40;54.80;;;;;;5053012;28;20655;-67
2021/07/28 03:45:03;;;;;;;1.77;0.60;;;27.00;54.50;;;;;;5052664;28;20179;-70
2021/07/28 03:47:31;;;;;;;1.83;0.60;;;26.40;54.60;;;;;;5052764;28;20180;-70
2021/07/28 03:49:58;;;;;;;2.63;0.60;;;25.70;55.50;;;;;;5052921;28;21507;-71
2021/07/28 03:52:25;;;;;;;3.53;0.70;;;25.60;56.20;;;;;;5051935;28;20180;-68
2021/07/28 03:54:53;;;;;;;4.53;0.77;;;25.40;56.30;;;;;;5051599;28;20585;-71
2021/07/28 03:57:20;;;;;;;2.93;0.50;;;25.30;56.60;;;;;;5052961;28;20180;-66
2021/07/28 03:59:48;;;;;;;2.43;0.50;;;25.40;56.10;;;;;;5052578;28;20211;-67
2021/07/28 04:02:15;;;;;;;2.10;0.70;;;25.10;56.90;;;;;;5052525;28;20184;-68
2021/07/28 04:04:42;;;;;;;1.33;0.40;;;25.10;56.80;;;;;;5051154;28;20267;-67
2021/07/28 04:07:11;;;;;;;3.63;0.50;;;25.60;56.50;;;;;;5051030;28;20176;-70
2021/07/28 04:09:39;;;;;;;1.27;0.60;;;26.30;56.20;;;;;;5047877;28;20211;-67
2021/07/28 04:12:07;;;;;;;0.73;0.50;;;27.00;55.10;;;;;;5053259;28;20184;-69
2021/07/28 04:14:34;;;;;;;3.07;0.80;;;27.00;54.50;;;;;;5051358;28;20224;-68
2021/07/28 04:17:02;;;;;;;3.30;0.70;;;27.20;54.20;;;;;;5050678;28;20187;-68
2021/07/28 04:19:29;;;;;;;5.03;0.70;;;27.50;54.30;;;;;;5048325;28;20215;-68
2021/07/28 04:21:56;;;;;;;2.90;0.60;;;27.20;53.80;;;;;;5051957;28;20184;-68
2021/07/28 04:24:24;;;;;;;3.87;0.60;;;26.80;54.70;;;;;;5052924;28;20196;-68
2021/07/28 04:26:51;;;;;;;3.03;0.60;;;26.60;54.20;;;;;;5052305;28;20176;-68
2021/07/28 04:29:18;;;;;;;1.67;0.77;;;26.80;54.00;;;;;;5052327;28;20214;-68
2021/07/28 04:31:46;;;;;;;1.37;0.60;;;26.90;53.70;;;;;;5051312;28;20242;-67
2021/07/28 04:34:13;;;;;;;0.97;0.60;;;26.90;53.40;;;;;;5052518;28;20560;-67
2021/07/28 04:36:40;;;;;;;2.40;0.50;;;26.50;53.40;;;;;;5044929;28;20334;-66
2021/07/28 04:39:07;;;;;;;1.90;0.77;;;26.00;54.00;;;;;;5050971;28;20184;-67
2021/07/28 04:41:35;;;;;;;1.83;0.60;;;25.80;54.30;;;;;;5053297;28;20237;-68
2021/07/28 04:44:02;;;;;;;3.97;0.60;;;25.50;55.10;;;;;;5052908;28;20234;-67
2021/07/28 04:46:30;;;;;;;2.00;0.70;;;25.20;55.40;;;;;;5052533;28;20192;-68
2021/07/28 04:48:57;;;;;;;2.03;0.60;;;25.00;56.00;;;;;;5051844;28;20253;-69
2021/07/28 04:51:26;;;;;;;4.27;0.70;;;24.80;55.70;;;;;;5051225;28;20203;-66
2021/07/28 04:53:54;;;;;;;1.10;0.50;;;24.90;55.90;;;;;;5055651;28;20234;-66
2021/07/28 04:56:21;;;;;;;3.00;0.53;;;25.30;55.10;;;;;;5071909;28;20638;-68
2021/07/28 04:58:48;;;;;;;10.57;0.57;;;25.20;55.10;;;;;;5054597;28;20663;-68
2021/07/28 05:01:16;;;;;;;2.30;0.90;;;25.40;56.00;;;;;;5054840;28;20183;-68
2021/07/28 05:03:43;;;;;;;3.77;0.57;;;25.80;55.30;;;;;;5058223;28;20187;-66
2021/07/28 05:06:10;;;;;;;9.63;0.83;;;25.30;56.00;;;;;;5069020;28;20246;-71
2021/07/28 05:08:38;;;;;;;2.70;0.83;;;25.20;56.00;;;;;;5054827;28;20223;-71
2021/07/28 05:11:05;;;;;;;2.13;0.60;;;25.40;55.90;;;;;;5067246;28;20660;-70
2021/07/28 05:13:32;;;;;;;4.57;0.63;;;25.20;55.60;;;;;;5056099;28;20258;-73
2021/07/28 05:15:59;;;;;;;2.17;0.77;;;24.60;55.60;;;;;;5065432;28;20190;-70
2021/07/28 05:18:27;;;;;;;3.07;0.60;;;24.10;56.00;;;;;;5064301;28;20180;-74
2021/07/28 05:20:54;;;;;;;3.00;0.77;;;23.70;56.60;;;;;;5054888;28;20541;-72
2021/07/28 05:23:21;;;;;;;7.97;1.10;;;23.40;56.90;;;;;;5067075;28;20256;-75
2021/07/28 05:25:49;;;;;;;1.97;0.70;;;23.20;57.00;;;;;;5064610;28;20722;-70
2021/07/28 05:28:16;;;;;;;4.20;0.70;;;23.00;57.60;;;;;;5069697;28;20178;-73
2021/07/28 05:30:43;;;;;;;2.10;0.60;;;22.90;58.00;;;;;;5061781;28;20184;-68
2021/07/28 05:33:11;;;;;;;2.70;0.90;;;22.80;58.20;;;;;;5066506;28;20271;-71
2021/07/28 05:35:38;;;;;;;4.53;0.90;;;22.70;58.60;;;;;;5059407;28;20268;-67
2021/07/28 05:38:06;;;;;;;2.27;0.53;;;22.60;59.00;;;;;;5060595;28;20728;-69
2021/07/28 05:40:33;;;;;;;1.57;0.70;;;22.40;59.30;;;;;;5055585;28;20329;-67
2021/07/28 05:43:00;;;;;;;2.17;0.70;;;22.30;59.70;;;;;;5051606;28;20685;-68
2021/07/28 05:45:28;;;;;;;3.30;0.80;;;22.20;59.90;;;;;;5052463;28;20215;-68
2021/07/28 05:47:55;;;;;;;1.47;0.57;;;22.10;60.50;;;;;;5061270;28;20187;-66
2021/07/28 05:50:22;;;;;;;4.00;0.97;;;22.00;60.90;;;;;;5066692;28;20191;-67
2021/07/28 05:52:50;;;;;;;2.97;1.07;;;21.90;61.30;;;;;;5052489;28;20207;-68
2021/07/28 05:55:17;;;;;;;2.37;0.47;;;21.80;61.70;;;;;;5051934;28;20664;-67
2021/07/28 05:57:51;;;;;;;4.57;0.70;;;21.70;62.20;;;;;;5052124;28;20268;-69
2021/07/28 06:00:18;;;;;;;3.70;1.10;;;21.60;62.50;;;;;;5048792;28;20191;-65
2021/07/28 06:02:46;;;;;;;4.77;0.87;;;21.50;62.80;;;;;;5050192;28;20187;-68
2021/07/28 06:05:13;;;;;;;3.33;0.83;;;21.40;62.90;;;;;;5052854;28;20243;-67
2021/07/28 06:07:41;;;;;;;2.33;0.73;;;21.40;63.00;;;;;;5055219;28;20179;-65
2021/07/28 06:10:08;;;;;;;8.00;1.20;;;21.30;63.60;;;;;;5050902;28;20275;-66
2021/07/28 06:12:36;;;;;;;3.87;0.83;;;21.20;63.70;;;;;;5052185;28;20211;-65
2021/07/28 06:15:03;;;;;;;3.13;1.13;;;21.10;64.10;;;;;;5042250;28;20216;-67
2021/07/28 06:17:31;;;;;;;3.80;1.37;;;21.00;64.20;;;;;;5052119;28;20172;-70
2021/07/28 06:19:59;;;;;;;1.57;0.63;;;21.00;64.60;;;;;;5051701;28;20642;-69
2021/07/28 06:22:27;;;;;;;1.80;0.60;;;20.90;64.90;;;;;;5051823;28;20219;-70
2021/07/28 06:24:54;;;;;;;3.47;0.73;;;20.90;65.00;;;;;;5045439;28;20705;-68
2021/07/28 06:27:21;;;;;;;1.00;0.70;;;20.80;65.40;;;;;;5057526;28;20192;-69
2021/07/28 06:29:49;;;;;;;3.77;1.10;;;20.80;65.70;;;;;;5050541;28;20172;-68
2021/07/28 06:32:16;;;;;;;3.73;0.90;;;20.70;65.90;;;;;;5051841;28;20691;-69
2021/07/28 06:34:44;;;;;;;4.43;1.43;;;20.70;66.20;;;;;;5051390;28;20242;-69
2021/07/28 06:37:11;;;;;;;2.37;0.90;;;20.60;66.60;;;;;;5037477;28;20187;-71
2021/07/28 06:39:38;;;;;;;2.63;0.80;;;20.50;66.90;;;;;;5064382;28;20549;-70
2021/07/28 06:42:06;;;;;;;0.90;0.70;;;20.50;67.30;;;;;;5052111;28;20187;-75
2021/07/28 06:44:33;;;;;;;3.07;0.80;;;20.40;67.80;;;;;;5051651;28;20180;-66
2021/07/28 06:47:01;;;;;;;3.90;0.57;;;20.30;68.80;;;;;;5051881;28;20646;-69
2021/07/28 06:49:28;;;;;;;5.43;2.00;;;20.10;68.90;;;;;;5047780;28;20187;-68
2021/07/28 06:51:55;;;;;;;2.23;1.00;;;20.10;70.00;;;;;;5044612;28;20640;-68
2021/07/28 06:54:22;;;;;;;0.73;0.60;;;20.00;70.30;;;;;;5054773;28;20218;-69
2021/07/28 06:56:50;;;;;;;1.93;0.90;;;19.90;70.50;;;;;;5055228;28;20168;-74
2021/07/28 06:59:17;;;;;;;1.67;0.70;;;19.90;71.00;;;;;;5051217;28;20175;-73
2021/07/28 07:01:45;;;;;;;4.70;0.80;;;19.80;71.50;;;;;;5055301;28;20183;-70
2021/07/28 07:04:12;;;;;;;3.13;1.00;;;19.80;70.90;;;;;;5043506;28;20189;-68
2021/07/28 07:06:40;;;;;;;0.93;0.60;;;19.90;70.30;;;;;;5044370;28;20200;-69
2021/07/28 07:09:07;;;;;;;3.10;0.70;;;20.00;69.40;;;;;;5054920;28;20274;-68
2021/07/28 07:11:37;;;;;;;0.97;0.53;;;20.00;68.90;;;;;;5046551;28;20185;-75
2021/07/28 07:14:05;;;;;;;1.27;0.50;;;20.00;69.10;;;;;;5052371;28;20237;-69
2021/07/28 07:16:32;;;;;;;0.83;0.60;;;20.00;69.50;;;;;;5054952;28;20607;-72
2021/07/28 07:18:59;;;;;;;2.57;0.57;;;19.90;69.30;;;;;;5054705;28;20179;-68
2021/07/28 07:21:26;;;;;;;2.53;0.67;;;19.90;69.50;;;;;;5053004;28;20186;-71
2021/07/28 07:23:55;;;;;;;1.53;0.70;;;19.90;69.80;;;;;;5051164;28;20180;-67
2021/07/28 07:26:22;;;;;;;0.97;0.80;;;19.80;70.10;;;;;;5054142;28;20180;-70
2021/07/28 07:28:49;;;;;;;1.20;0.67;;;19.80;70.50;;;;;;5054655;28;20230;-69
2021/07/28 07:31:17;;;;;;;2.23;0.80;;;19.70;70.90;;;;;;5055054;28;20310;-69
2021/07/28 07:33:44;;;;;;;2.47;0.70;;;19.60;72.10;;;;;;5056707;28;20621;-70
2021/07/28 07:36:17;;;;;;;1.23;0.67;;;19.60;71.80;;;;;;5052122;28;20194;-70
2021/07/28 07:38:45;;;;;;;1.30;0.90;;;19.50;72.30;;;;;;5052859;28;20195;-71
2021/07/28 07:41:12;;;;;;;1.00;0.60;;;19.40;72.70;;;;;;5040584;28;20651;-68
2021/07/28 07:43:40;;;;;;;3.13;0.73;;;19.30;73.20;;;;;;5053842;28;20635;-71
2021/07/28 07:46:07;;;;;;;1.90;0.80;;;19.30;73.80;;;;;;5050554;28;20642;-68
2021/07/28 07:48:35;;;;;;;0.63;0.63;;;19.20;74.20;;;;;;5053538;28;20301;-67
2021/07/28 07:51:03;;;;;;;3.20;0.97;;;19.10;74.60;;;;;;5054075;28;20539;-70
2021/07/28 07:53:30;;;;;;;1.30;0.60;;;19.00;74.90;;;;;;5068768;28;20212;-69
2021/07/28 07:55:58;;;;;;;2.97;0.73;;;18.90;75.40;;;;;;5040430;28;20263;-71
2021/07/28 07:58:26;;;;;;;2.20;0.97;;;18.90;76.10;;;;;;5054018;28;20890;-71
2021/07/28 08:00:53;;;;;;;0.90;0.60;;;18.80;76.40;;;;;;5053769;28;20736;-71
2021/07/28 08:03:21;;;;;;;1.43;0.70;;;18.70;77.00;;;;;;5053051;28;20184;-68
2021/07/28 08:05:49;;;;;;;3.80;0.80;;;18.70;77.50;;;;;;5053609;28;20176;-67
2021/07/28 08:08:17;;;;;;;1.27;0.63;;;18.70;78.00;;;;;;5054149;28;20176;-70
2021/07/28 08:10:44;;;;;;;7.10;0.80;;;18.60;78.40;;;;;;5052365;28;20184;-67
2021/07/28 08:13:12;;;;;;;1.37;0.67;;;18.50;79.10;;;;;;5053975;28;20200;-69
2021/07/28 08:15:39;;;;;;;1.37;0.77;;;18.50;79.40;;;;;;5053165;28;20187;-67
2021/07/28 08:18:06;;;;;;;3.73;1.10;;;18.50;79.70;;;;;;5053204;28;20567;-68
2021/07/28 08:20:34;;;;;;;6.53;0.73;;;18.40;80.20;;;;;;5053478;28;20269;-66
2021/07/28 08:23:01;;;;;;;1.50;0.80;;;18.40;81.00;;;;;;5051781;28;20526;-69
2021/07/28 08:25:29;;;;;;;1.13;0.70;;;18.30;81.60;;;;;;5050580;28;20195;-71
2021/07/28 08:27:56;;;;;;;3.23;1.10;;;18.30;82.30;;;;;;5052692;28;20536;-69
2021/07/28 08:30:23;;;;;;;1.17;0.80;;;18.20;83.00;;;;;;5052907;28;20266;-71
2021/07/28 08:32:51;;;;;;;3.80;1.00;;;18.20;83.70;;;;;;5052501;28;20311;-70
2021/07/28 08:35:18;;;;;;;2.87;0.90;;;18.10;84.40;;;;;;5052671;28;20661;-71
2021/07/28 08:37:45;;;;;;;5.30;0.90;;;18.10;84.80;;;;;;5048396;28;20192;-67
2021/07/28 08:40:15;;;;;;;2.03;0.93;;;18.10;85.00;;;;;;5052122;28;20228;-72
2021/07/28 08:42:48;;;;;;;1.63;0.80;;;18.00;85.30;;;;;;5052812;28;20184;-71
2021/07/28 08:45:17;;;;;;;2.63;0.90;;;18.00;85.60;;;;;;5041920;28;20569;-69
2021/07/28 08:47:45;;;;;;;2.10;0.70;;;17.90;85.90;;;;;;5081853;28;20179;-68
2021/07/28 08:50:14;;;;;;;2.23;0.90;;;17.90;86.70;;;;;;5047695;28;20177;-71
2021/07/28 08:52:43;;;;;;;1.23;0.60;;;17.80;87.50;;;;;;5052958;28;20641;-67
2021/07/28 08:55:12;;;;;;;5.93;1.50;;;17.70;88.40;;;;;;5052562;28;20300;-70
2021/07/28 08:57:39;;;;;;;2.57;1.13;;;17.70;89.00;;;;;;5052576;28;20202;-70
2021/07/28 09:00:09;;;;;;;3.83;0.97;;;17.60;89.70;;;;;;5057958;28;20183;-68
2021/07/28 09:02:37;;;;;;;2.30;0.90;;;17.60;90.10;;;;;;5050504;28;20180;-71
2021/07/28 09:05:05;;;;;;;3.53;1.10;;;17.60;90.30;;;;;;5055226;28;20630;-67
2021/07/28 09:07:41;;;;;;;0.87;0.73;;;17.50;90.80;;;;;;5056564;28;20179;-68
2021/07/28 09:10:13;;;;;;;1.57;0.70;;;17.50;90.90;;;;;;5055669;28;20263;-70
2021/07/28 09:12:44;;;;;;;3.20;0.70;;;17.40;91.10;;;;;;5054935;28;20195;-68
2021/07/28 09:15:15;;;;;;;4.10;1.10;;;17.40;91.40;;;;;;5043588;28;20223;-70
2021/07/28 09:17:47;;;;;;;3.57;1.10;;;17.30;91.70;;;;;;5048095;28;20177;-71
2021/07/28 09:20:24;;;;;;;1.73;0.97;;;17.30;91.90;;;;;;5050801;28;20195;-71
2021/07/28 09:22:52;;;;;;;1.70;0.70;;;17.30;92.20;;;;;;5050150;28;20207;-71
2021/07/28 09:25:32;;;;;;;1.90;0.87;;;17.20;92.40;;;;;;5048111;28;20195;-68
2021/07/28 09:27:59;;;;;;;1.90;0.90;;;17.20;92.60;;;;;;5051077;28;20276;-67
2021/07/28 09:30:27;;;;;;;1.03;0.70;;;17.10;92.80;;;;;;5055499;28;20176;-68
2021/07/28 09:33:12;;;;;;;3.10;0.67;;;17.10;93.00;;;;;;5054863;28;20692;-67
2021/07/28 09:35:48;;;;;;;3.17;1.00;;;17.10;93.20;;;;;;5051132;28;21039;-65
2021/07/28 09:38:35;;;;;;;0.60;0.60;;;17.10;93.50;;;;;;5054459;28;20292;-69
2021/07/28 09:41:23;;;;;;;1.20;0.80;;;17.00;93.80;;;;;;5052512;28;20553;-66
2021/07/28 09:44:01;;;;;;;2.20;0.80;;;17.00;94.00;;;;;;5058025;28;20190;-69
2021/07/28 09:46:39;;;;;;;3.27;1.10;;;16.90;94.00;;;;;;5049676;28;20188;-66
2021/07/28 09:49:07;;;;;;;1.33;0.70;;;16.90;94.30;;;;;;5071450;28;20183;-67
2021/07/28 09:51:38;;;;;;;1.73;0.70;;;16.80;94.60;;;;;;5065056;28;20179;-67
2021/07/28 09:54:07;;;;;;;3.50;0.93;;;16.80;94.70;;;;;;5066044;28;20298;-67
2021/07/28 09:56:48;;;;;;;2.30;0.90;;;16.80;94.90;;;;;;5066840;28;20538;-74
2021/07/28 09:59:17;;;;;;;2.50;0.93;;;16.70;94.90;;;;;;5059741;28;20650;-72
2021/07/28 10:01:46;;;;;;;4.13;0.87;;;16.70;94.90;;;;;;5043409;28;20186;-70
2021/07/28 10:04:15;;;;;;;2.63;1.00;;;16.70;95.10;;;;;;5051622;28;20190;-71
2021/07/28 10:06:47;;;;;;;7.30;0.90;;;16.70;95.20;;;;;;5045962;28;20186;-70
2021/07/28 10:09:20;;;;;;;5.67;1.20;;;16.70;95.20;;;;;;5049818;28;20190;-71
2021/07/28 10:11:52;;;;;;;2.73;1.00;;;16.70;95.40;;;;;;5062342;28;20519;-71
2021/07/28 10:14:22;;;;;;;1.70;0.70;;;16.70;95.40;;;;;;5052055;28;20215;-67
2021/07/28 10:16:52;;;;;;;3.90;1.00;;;16.60;95.60;;;;;;5049031;28;20938;-68
2021/07/28 10:19:21;;;;;;;1.70;0.77;;;16.60;95.80;;;;;;5051894;28;20541;-69
2021/07/28 10:21:50;;;;;;;1.73;0.80;;;16.50;96.10;;;;;;5051564;28;20243;-70
2021/07/28 10:24:17;;;;;;;3.13;0.90;;;16.50;96.20;;;;;;5056928;28;20269;-71
2021/07/28 10:26:50;;;;;;;2.53;0.80;;;16.40;96.30;;;;;;5053147;28;20180;-69
2021/07/28 10:29:18;;;;;;;0.70;0.67;;;16.40;96.50;;;;;;5055954;28;20310;-70
2021/07/28 10:31:50;;;;;;;2.20;0.93;;;16.40;96.90;;;;;;5061974;28;20226;-69
2021/07/28 10:34:30;;;;;;;3.70;1.27;;;16.30;97.10;;;;;;5056643;28;20211;-70
2021/07/28 10:37:08;;;;;;;3.60;0.80;;;16.30;97.10;;;;;;5055566;28;20638;-71
2021/07/28 10:39:42;;;;;;;1.87;1.03;;;16.40;97.10;;;;;;5049395;28;20200;-73
2021/07/28 10:42:10;;;;;;;2.87;1.10;;;16.30;97.30;;;;;;5055820;28;20204;-68
2021/07/28 10:44:59;;;;;;;3.60;1.33;;;16.30;97.60;;;;;;5055313;28;20235;-70
2021/07/28 10:47:47;;;;;;;3.27;0.80;;;16.30;97.70;;;;;;5055305;28;20259;-70
2021/07/28 10:52:53;;;;;;;2.50;0.90;;;16.30;97.70;;;;;;5055037;28;20188;-72
2021/07/28 10:55:28;;;;;;;0.77;0.73;;;16.30;97.80;;;;;;5055544;28;20197;-70
2021/07/28 10:58:10;;;;;;;3.97;0.83;;;16.20;97.90;;;;;;5065490;28;20175;-70
2021/07/28 11:00:43;;;;;;;3.27;1.07;;;16.20;98.10;;;;;;5055135;28;20188;-71
2021/07/28 11:03:13;;;;;;;3.23;1.17;;;16.20;98.20;;;;;;5062805;28;20230;-70
2021/07/28 11:05:42;;;;;;;2.23;0.77;;;16.10;98.30;;;;;;5061233;28;20189;-69
2021/07/28 11:08:12;;;;;;;1.90;0.77;;;16.10;98.30;;;;;;5055616;28;20601;-68
2021/07/28 11:10:58;;;;;;;4.20;0.73;;;16.10;98.50;;;;;;5055832;28;20196;-67
2021/07/28 11:13:31;;;;;;;1.27;0.87;;;16.10;98.50;;;;;;5063736;28;20208;-68
2021/07/28 11:16:03;;;;;;;1.27;0.70;;;16.10;98.60;;;;;;5058946;28;20180;-70
2021/07/28 11:18:46;;;;;;;2.90;0.90;;;16.10;98.80;;;;;;5058768;28;20189;-70
2021/07/28 11:21:17;;;;;;;2.40;1.67;;;16.00;98.90;;;;;;5064946;28;20181;-70
2021/07/28 11:24:06;;;;;;;10.40;0.80;;;16.00;99.00;;;;;;5061413;28;20176;-66
2021/07/28 11:26:40;;;;;;;2.63;0.73;;;16.00;99.10;;;;;;5058471;28;20545;-68
2021/07/28 11:29:10;;;;;;;0.90;0.80;;;15.90;99.30;;;;;;5054924;28;20176;-67
2021/07/28 11:31:42;;;;;;;4.50;1.67;;;15.90;99.50;;;;;;5054218;28;20652;-68
2021/07/28 11:34:11;;;;;;;5.87;1.73;;;15.80;99.70;;;;;;5052516;28;21739;-67
2021/07/28 11:36:41;;;;;;;3.20;0.90;;;15.80;99.80;;;;;;5054621;28;20640;-69
2021/07/28 11:39:10;;;;;;;1.23;0.70;;;15.80;99.90;;;;;;5053678;28;20185;-68
2021/07/28 11:41:38;;;;;;;4.97;1.20;;;15.70;99.90;;;;;;5057951;28;20179;-66
2021/07/28 11:44:05;;;;;;;2.40;1.03;;;15.70;99.90;;;;;;5054371;28;20266;-67
2021/07/28 11:46:33;;;;;;;1.27;0.93;;;15.70;99.90;;;;;;5058012;28;20661;-66
2021/07/28 11:49:05;;;;;;;1.50;0.90;;;15.70;99.90;;;;;;5060312;28;20187;-68
2021/07/28 11:51:38;;;;;;;1.67;0.97;;;15.60;99.90;;;;;;5061611;28;20184;-67
2021/07/28 11:54:18;;;;;;;2.20;1.20;;;15.60;99.90;;;;;;5055039;28;20578;-66
2021/07/28 11:56:53;;;;;;;1.90;0.80;;;15.60;99.90;;;;;;5054091;28;20549;-66
2021/07/28 11:59:22;;;;;;;3.20;1.10;;;15.60;99.90;;;;;;5052651;28;20194;-66
2021/07/28 12:01:50;;;;;;;4.73;1.20;;;15.50;99.90;;;;;;5060914;28;20176;-68
2021/07/28 12:04:22;;;;;;;1.00;0.80;;;15.50;99.90;;;;;;5059759;28;20210;-67
2021/07/28 12:06:51;;;;;;;4.33;0.97;;;15.50;99.90;;;;;;5054023;28;20208;-68
2021/07/28 12:09:22;;;;;;;1.47;0.90;;;15.40;99.90;;;;;;5055740;28;20196;-69
2021/07/28 12:12:04;;;;;;;2.80;0.90;;;15.40;99.90;;;;;;5059447;28;20262;-68
2021/07/28 12:14:42;;;;;;;4.03;1.07;;;15.30;99.90;;;;;;5050774;28;20216;-67
2021/07/28 12:17:22;;;;;;;1.97;0.73;;;15.30;99.90;;;;;;5056573;28;20188;-67
2021/07/28 12:19:56;;;;;;;2.27;0.93;;;15.20;99.90;;;;;;5053826;28;20253;-68
2021/07/28 12:22:32;;;;;;;1.10;0.80;;;15.20;99.90;;;;;;5056918;28;20172;-67
2021/07/28 12:25:14;;;;;;;3.10;0.90;;;15.10;99.90;;;;;;5064466;28;20611;-67
2021/07/28 12:27:58;;;;;;;2.83;0.80;;;15.10;99.90;;;;;;5054047;28;20535;-69
2021/07/28 12:30:40;;;;;;;4.13;1.10;;;15.10;99.90;;;;;;5055801;28;20189;-66
2021/07/28 12:33:23;;;;;;;3.03;1.20;;;15.10;99.90;;;;;;5056386;28;20629;-66
2021/07/28 12:35:58;;;;;;;3.63;1.13;;;15.10;99.90;;;;;;5054724;28;20215;-66
2021/07/28 12:38:27;;;;;;;3.73;0.90;;;15.00;99.90;;;;;;5047524;28;20264;-65
2021/07/28 12:41:04;;;;;;;1.87;0.90;;;15.00;99.90;;;;;;5045966;28;20541;-66
2021/07/28 12:43:37;;;;;;;1.00;0.80;;;15.00;99.90;;;;;;5052576;28;20180;-66
2021/07/28 12:46:07;;;;;;;2.73;1.00;;;15.00;99.90;;;;;;5050665;28;20191;-66
2021/07/28 12:48:36;;;;;;;1.47;0.90;;;15.00;99.90;;;;;;5047028;28;20195;-66
2021/07/28 12:51:05;;;;;;;3.57;1.10;;;14.90;99.90;;;;;;5052011;28;20208;-66
2021/07/28 12:53:33;;;;;;;1.80;1.00;;;14.90;99.90;;;;;;5052416;28;20208;-66
2021/07/28 12:56:01;;;;;;;1.80;1.00;;;14.80;99.90;;;;;;5053169;28;20646;-66
2021/07/28 12:58:28;;;;;;;2.27;0.73;;;14.90;99.90;;;;;;5053164;28;20238;-66
2021/07/28 13:01:00;;;;;;;4.13;0.90;;;14.80;99.90;;;;;;5056123;28;20186;-65